createdAt,value
2023-01-12T00:02:22.035Z,2.34
2023-01-12T00:04:50.261Z,2.41
2023-01-12T00:07:19.000Z,2.43
2023-01-12T00:09:47.080Z,2.49
2023-01-12T00:12:16.542Z,2.47
2023-01-12T00:14:44.569Z,2.43
2023-01-12T00:17:16.881Z,2.42
2023-01-12T00:19:44.951Z,2.48
2023-01-12T00:22:16.606Z,2.46
2023-01-12T00:24:46.389Z,2.36
2023-01-12T00:27:19.215Z,2.35
2023-01-12T00:29:47.440Z,2.38
2023-01-12T00:32:18.414Z,2.38
2023-01-12T00:34:46.518Z,2.38
2023-01-12T00:37:15.213Z,2.31
2023-01-12T00:39:53.130Z,2.30
2023-01-12T00:42:47.673Z,2.30
2023-01-12T00:45:25.399Z,2.30
2023-01-12T00:47:54.615Z,2.26
2023-01-12T00:50:23.173Z,2.25
2023-01-12T00:52:51.270Z,2.25
2023-01-12T00:55:19.693Z,2.24
2023-01-12T00:57:49.214Z,2.16
2023-01-12T01:00:18.469Z,2.14
2023-01-12T01:02:46.808Z,2.14
2023-01-12T01:05:15.095Z,2.17
2023-01-12T01:07:43.266Z,2.13
2023-01-12T01:10:12.569Z,2.06
2023-01-12T01:12:40.685Z,2.03
2023-01-12T01:15:11.169Z,1.97
2023-01-12T01:17:39.276Z,1.98
2023-01-12T01:20:07.955Z,1.97
2023-01-12T01:22:36.054Z,1.96
2023-01-12T01:25:04.150Z,1.92
2023-01-12T01:27:32.264Z,1.91
2023-01-12T01:30:00.315Z,1.91
2023-01-12T01:32:29.781Z,1.85
2023-01-12T01:34:57.878Z,1.89
2023-01-12T01:37:25.949Z,1.85
2023-01-12T01:39:55.213Z,1.87
2023-01-12T01:42:28.966Z,1.93
2023-01-12T01:44:59.494Z,1.94
2023-01-12T01:47:36.001Z,1.91
2023-01-12T01:50:13.458Z,1.87
2023-01-12T01:52:45.399Z,1.85
2023-01-12T01:55:18.191Z,1.88
2023-01-12T01:57:52.086Z,1.90
2023-01-12T02:00:20.964Z,1.90
2023-01-12T02:02:50.620Z,1.90
2023-01-12T02:05:22.114Z,1.93
2023-01-12T02:07:50.963Z,1.91
2023-01-12T02:10:20.572Z,1.93
2023-01-12T02:13:06.668Z,1.92
2023-01-12T02:16:00.916Z,1.95
2023-01-12T02:18:37.310Z,1.94
2023-01-12T02:21:16.037Z,2.00
2023-01-12T02:24:23.621Z,1.93
2023-01-12T02:27:39.449Z,1.90
2023-01-12T02:30:53.027Z,1.95
2023-01-12T02:33:39.447Z,1.90
2023-01-12T02:36:16.770Z,1.91
2023-01-12T02:38:51.067Z,1.91
2023-01-12T02:41:45.168Z,1.94
2023-01-12T02:44:23.785Z,1.89
2023-01-12T02:46:53.195Z,1.90
2023-01-12T02:49:28.143Z,1.84
2023-01-12T02:51:59.791Z,1.85
2023-01-12T02:54:29.756Z,1.83
2023-01-12T02:57:04.390Z,1.83
2023-01-12T02:59:35.223Z,1.90
2023-01-12T03:02:12.186Z,1.84
2023-01-12T03:04:42.064Z,1.85
2023-01-12T03:07:43.327Z,1.83
2023-01-12T03:10:26.244Z,1.85
2023-01-12T03:12:55.343Z,1.95
2023-01-12T03:15:25.201Z,1.90
2023-01-12T03:17:59.424Z,1.87
2023-01-12T03:20:32.723Z,1.89
2023-01-12T03:23:05.643Z,1.90
2023-01-12T03:25:35.063Z,1.87
2023-01-12T03:28:06.122Z,1.90
2023-01-12T03:30:38.691Z,1.89
2023-01-12T03:33:08.048Z,1.84
2023-01-12T03:35:44.858Z,1.85
2023-01-12T03:38:20.464Z,1.78
2023-01-12T03:40:57.135Z,1.80
2023-01-12T03:43:31.868Z,1.74
2023-01-12T03:46:05.948Z,1.75
2023-01-12T03:48:39.718Z,1.72
2023-01-12T03:51:14.024Z,1.76
2023-01-12T03:53:44.346Z,1.76
2023-01-12T03:56:15.328Z,1.74
2023-01-12T03:58:44.264Z,1.79
2023-01-12T04:01:12.885Z,1.81
2023-01-12T04:03:41.085Z,1.78
2023-01-12T04:06:10.682Z,1.76
2023-01-12T04:08:38.847Z,1.73
2023-01-12T04:11:22.349Z,1.71
2023-01-12T04:13:50.393Z,1.73
2023-01-12T04:16:18.778Z,1.76
2023-01-12T04:18:46.929Z,1.77
2023-01-12T04:21:34.186Z,1.77
2023-01-12T04:24:02.287Z,1.78
2023-01-12T04:26:30.313Z,1.80
2023-01-12T04:29:00.380Z,1.85
2023-01-12T04:31:28.863Z,1.77
2023-01-12T04:33:57.006Z,1.76
2023-01-12T04:36:26.436Z,1.76
2023-01-12T04:38:54.503Z,1.74
2023-01-12T04:41:22.553Z,1.73
2023-01-12T04:43:50.762Z,1.63
2023-01-12T04:46:18.879Z,1.62
2023-01-12T04:48:47.083Z,1.60
2023-01-12T04:51:15.195Z,1.56
2023-01-12T04:53:44.872Z,1.56
2023-01-12T04:56:12.976Z,1.49
2023-01-12T04:58:42.321Z,1.39
2023-01-12T05:01:11.388Z,1.38
2023-01-12T05:03:39.851Z,1.34
2023-01-12T05:06:08.691Z,1.36
2023-01-12T05:08:54.502Z,1.39
2023-01-12T05:11:28.490Z,1.41
2023-01-12T05:13:56.684Z,1.39
2023-01-12T05:16:25.020Z,1.32
2023-01-12T05:18:54.423Z,1.23
2023-01-12T05:21:26.767Z,1.20
2023-01-12T05:23:54.897Z,1.14
2023-01-12T05:26:24.337Z,1.05
2023-01-12T05:28:55.754Z,1.03
2023-01-12T05:31:24.030Z,1.03
2023-01-12T05:33:52.130Z,1.04
2023-01-12T05:36:20.586Z,1.09
2023-01-12T05:38:48.856Z,1.05
2023-01-12T05:41:17.045Z,1.03
2023-01-12T05:43:51.688Z,1.06
2023-01-12T05:46:22.186Z,1.05
2023-01-12T05:48:50.824Z,1.03
2023-01-12T05:51:19.114Z,1.08
2023-01-12T05:53:47.328Z,1.02
2023-01-12T05:56:20.129Z,1.04
2023-01-12T05:58:54.226Z,1.05
2023-01-12T06:01:25.635Z,1.01
2023-01-12T06:03:55.559Z,0.98
2023-01-12T06:06:26.122Z,0.97
2023-01-12T06:08:55.268Z,0.97
2023-01-12T06:11:42.941Z,0.96
2023-01-12T06:14:12.779Z,0.96
2023-01-12T06:16:44.246Z,0.98
2023-01-12T06:19:13.376Z,0.98
2023-01-12T06:21:42.165Z,1.04
2023-01-12T06:24:10.420Z,1.00
2023-01-12T06:26:38.585Z,1.04
2023-01-12T06:29:07.317Z,1.10
2023-01-12T06:31:38.836Z,1.04
2023-01-12T06:34:07.998Z,0.99
2023-01-12T06:36:36.865Z,0.96
2023-01-12T06:39:05.543Z,0.90
2023-01-12T06:41:52.392Z,0.88
2023-01-12T06:44:20.575Z,0.82
2023-01-12T06:46:50.091Z,0.77
2023-01-12T06:49:18.545Z,0.78
2023-01-12T06:51:48.998Z,0.73
2023-01-12T06:54:18.399Z,0.72
2023-01-12T06:56:47.101Z,0.73
2023-01-12T06:59:15.296Z,0.75
2023-01-12T07:01:43.561Z,0.77
2023-01-12T07:04:13.193Z,0.74
2023-01-12T07:06:41.409Z,0.68
2023-01-12T07:09:09.569Z,0.67
2023-01-12T07:11:37.775Z,0.70
2023-01-12T07:14:07.799Z,0.71
2023-01-12T07:16:37.211Z,0.74
2023-01-12T07:19:05.396Z,0.66
2023-01-12T07:21:34.923Z,0.71
2023-01-12T07:24:03.263Z,0.84
2023-01-12T07:26:31.361Z,1.13
2023-01-12T07:28:59.442Z,1.52
2023-01-12T07:31:27.654Z,1.80
2023-01-12T07:33:56.130Z,1.97
2023-01-12T07:36:25.755Z,1.91
2023-01-12T07:38:55.274Z,1.99
2023-01-12T07:41:40.684Z,2.07
2023-01-12T07:44:11.592Z,2.08
2023-01-12T07:46:39.842Z,2.16
2023-01-12T07:49:07.942Z,2.51
2023-01-12T07:51:36.089Z,2.79
2023-01-12T07:54:05.757Z,3.01
2023-01-12T07:56:33.949Z,3.18
2023-01-12T07:59:02.013Z,3.21
2023-01-12T08:01:32.611Z,3.20
2023-01-12T08:04:00.778Z,3.33
2023-01-12T08:06:29.055Z,3.48
2023-01-12T08:08:57.175Z,3.44
2023-01-12T08:11:26.959Z,3.23
2023-01-12T08:13:56.213Z,3.25
2023-01-12T08:16:28.699Z,3.41
2023-01-12T08:19:03.410Z,3.56
2023-01-12T08:21:36.901Z,3.93
2023-01-12T08:24:07.421Z,4.22
2023-01-12T08:26:41.110Z,4.50
2023-01-12T08:29:13.150Z,4.84
2023-01-12T08:31:42.059Z,5.17
2023-01-12T08:34:10.997Z,5.35
2023-01-12T08:36:44.039Z,5.68
2023-01-12T08:39:12.915Z,5.99
2023-01-12T08:41:42.474Z,6.28
2023-01-12T08:44:11.153Z,6.65
2023-01-12T08:46:40.708Z,6.93
2023-01-12T08:49:11.473Z,7.15
2023-01-12T08:51:40.519Z,7.55
2023-01-12T08:54:10.554Z,7.83
2023-01-12T08:56:38.766Z,8.06
2023-01-12T08:59:08.598Z,8.14
2023-01-12T09:01:37.385Z,8.51
2023-01-12T09:04:06.108Z,8.88
2023-01-12T09:06:37.078Z,9.13
2023-01-12T09:09:08.379Z,9.12
2023-01-12T09:11:37.891Z,9.09
2023-01-12T09:14:06.456Z,9.31
2023-01-12T09:16:36.039Z,9.74
2023-01-12T09:19:04.807Z,10.28
2023-01-12T09:21:33.468Z,10.16
2023-01-12T09:24:01.576Z,10.54
2023-01-12T09:26:32.559Z,10.50
2023-01-12T09:29:00.953Z,10.62
2023-01-12T09:31:30.324Z,10.90
2023-01-12T09:34:00.778Z,11.17
2023-01-12T09:36:30.620Z,11.35
2023-01-12T09:38:59.169Z,11.38
2023-01-12T09:41:43.507Z,11.21
2023-01-12T09:44:37.822Z,11.36
2023-01-12T09:47:11.457Z,11.12
2023-01-12T09:49:45.351Z,10.66
2023-01-12T09:52:18.516Z,10.77
2023-01-12T09:54:50.644Z,11.01
2023-01-12T09:57:50.756Z,11.23
2023-01-12T10:00:20.573Z,11.53
2023-01-12T10:02:52.504Z,11.59
2023-01-12T10:05:39.533Z,11.73
2023-01-12T10:08:17.336Z,12.00
2023-01-12T10:10:57.984Z,11.71
2023-01-12T10:13:32.799Z,11.67
2023-01-12T10:16:09.392Z,11.47
2023-01-12T10:18:44.825Z,11.54
2023-01-12T10:21:16.039Z,11.28
2023-01-12T10:23:45.413Z,11.15
2023-01-12T10:26:22.197Z,11.00
2023-01-12T10:28:53.555Z,11.05
2023-01-12T10:31:24.158Z,11.18
2023-01-12T10:34:07.177Z,11.14
2023-01-12T10:36:42.734Z,11.01
2023-01-12T10:39:31.318Z,10.89
2023-01-12T10:42:44.050Z,11.02
2023-01-12T10:45:18.285Z,11.27
2023-01-12T10:47:47.208Z,11.07
2023-01-12T10:50:22.891Z,11.09
2023-01-12T10:52:57.418Z,11.31
2023-01-12T10:55:30.086Z,11.12
2023-01-12T10:57:58.547Z,11.26
2023-01-12T11:00:28.845Z,10.88
2023-01-12T11:02:57.605Z,11.02
2023-01-12T11:05:34.187Z,11.02
2023-01-12T11:08:03.786Z,11.07
2023-01-12T11:10:35.736Z,11.16
2023-01-12T11:13:05.923Z,11.04
2023-01-12T11:15:39.105Z,11.11
2023-01-12T11:18:27.070Z,11.43
2023-01-12T11:20:58.255Z,11.58
2023-01-12T11:23:34.146Z,11.87
2023-01-12T11:26:05.597Z,11.83
2023-01-12T11:28:40.371Z,12.01
2023-01-12T11:31:13.754Z,12.01
2023-01-12T11:33:44.951Z,12.40
2023-01-12T11:36:17.730Z,12.73
2023-01-12T11:38:50.659Z,13.46
2023-01-12T11:41:25.503Z,13.69
2023-01-12T11:43:59.147Z,13.97
2023-01-12T11:46:31.183Z,13.93
2023-01-12T11:49:07.632Z,14.13
2023-01-12T11:51:35.839Z,14.29
2023-01-12T11:54:07.431Z,14.25
2023-01-12T11:57:08.819Z,14.17
2023-01-12T11:59:47.125Z,14.24
2023-01-12T12:02:33.177Z,14.54
2023-01-12T12:05:11.429Z,14.33
2023-01-12T12:07:53.207Z,14.28
2023-01-12T12:10:25.993Z,14.21
2023-01-12T12:13:21.906Z,13.91
2023-01-12T12:15:58.368Z,13.56
2023-01-12T12:18:40.634Z,13.55
2023-01-12T12:21:16.932Z,13.37
2023-01-12T12:23:53.464Z,13.07
2023-01-12T12:26:28.188Z,13.09
2023-01-12T12:29:17.147Z,12.69
2023-01-12T12:31:58.672Z,12.60
2023-01-12T12:34:51.492Z,12.63
2023-01-12T12:37:26.966Z,12.80
2023-01-12T12:40:00.169Z,13.07
2023-01-12T12:43:00.647Z,12.82
2023-01-12T12:45:40.513Z,12.76
2023-01-12T12:48:15.088Z,12.51
2023-01-12T12:50:50.913Z,12.32
2023-01-12T12:53:25.160Z,12.25
2023-01-12T12:55:54.881Z,12.13
2023-01-12T12:58:47.297Z,12.12
2023-01-12T13:02:00.259Z,12.12
2023-01-12T13:05:03.196Z,11.87
2023-01-12T13:07:36.491Z,11.74
2023-01-12T13:10:19.821Z,11.68
2023-01-12T13:12:57.982Z,11.69
2023-01-12T13:15:32.675Z,11.48
2023-01-12T13:18:01.046Z,11.50
2023-01-12T13:20:51.103Z,11.54
2023-01-12T13:23:44.170Z,11.54
2023-01-12T13:26:41.162Z,11.53
2023-01-12T13:29:44.532Z,11.36
2023-01-12T13:32:43.587Z,11.45
2023-01-12T13:35:44.617Z,11.18
2023-01-12T13:38:17.244Z,11.14
2023-01-12T13:40:55.901Z,11.11
2023-01-12T13:43:28.899Z,11.12
2023-01-12T13:45:59.798Z,11.08
2023-01-12T13:48:32.947Z,10.97
2023-01-12T13:51:05.475Z,10.98
2023-01-12T13:53:33.668Z,10.90
2023-01-12T13:56:04.048Z,11.08
2023-01-12T13:58:40.581Z,11.29
2023-01-12T14:01:19.244Z,11.34
2023-01-12T14:04:20.026Z,11.85
2023-01-12T14:07:00.782Z,12.04
2023-01-12T14:09:41.269Z,12.18
2023-01-12T14:12:32.103Z,12.05
2023-01-12T14:15:36.182Z,11.98
2023-01-12T14:18:06.920Z,11.97
2023-01-12T14:20:45.530Z,12.03
2023-01-12T14:23:19.233Z,12.01
2023-01-12T14:25:48.484Z,11.72
2023-01-12T14:28:19.045Z,11.91
2023-01-12T14:30:50.351Z,11.98
2023-01-12T14:33:20.729Z,11.53
2023-01-12T14:35:54.719Z,11.43
2023-01-12T14:38:26.383Z,11.18
2023-01-12T14:41:00.685Z,10.96
2023-01-12T14:43:49.409Z,10.62
2023-01-12T14:46:27.186Z,10.21
2023-01-12T14:48:59.915Z,9.85
2023-01-12T14:51:34.771Z,9.67
2023-01-12T14:54:18.156Z,9.44
2023-01-12T14:56:56.381Z,9.15
2023-01-12T14:59:28.836Z,9.05
2023-01-12T15:02:21.104Z,8.92
2023-01-12T15:04:55.074Z,8.63
2023-01-12T15:07:26.568Z,8.51
2023-01-12T15:09:58.084Z,8.34
2023-01-12T15:12:44.980Z,8.23
2023-01-12T15:15:18.699Z,7.86
2023-01-12T15:18:05.223Z,7.54
2023-01-12T15:20:54.070Z,7.47
2023-01-12T15:23:47.229Z,7.36
2023-01-12T15:26:15.408Z,7.18
2023-01-12T15:28:44.818Z,7.05
2023-01-12T15:31:22.602Z,6.80
2023-01-12T15:33:50.807Z,6.63
2023-01-12T15:36:18.945Z,6.45
2023-01-12T15:38:48.602Z,6.24
2023-01-12T15:41:40.919Z,6.28
2023-01-12T15:44:13.103Z,6.02
2023-01-12T15:46:41.710Z,5.90
2023-01-12T15:49:10.052Z,5.74
2023-01-12T15:51:38.521Z,5.51
2023-01-12T15:54:09.245Z,5.42
2023-01-12T15:56:37.350Z,5.31
2023-01-12T15:59:05.537Z,5.14
2023-01-12T16:01:38.507Z,5.02
2023-01-12T16:04:40.231Z,5.05
2023-01-12T16:06:55.880Z,4.81
2023-01-12T16:09:25.417Z,4.75
2023-01-12T16:11:53.512Z,4.70
2023-01-12T16:14:21.630Z,4.60
2023-01-12T16:16:49.780Z,4.47
2023-01-12T16:19:23.671Z,4.40
2023-01-12T16:21:55.325Z,4.32
2023-01-12T16:24:26.903Z,4.31
2023-01-12T16:26:55.333Z,4.20
2023-01-12T16:29:24.331Z,4.11
2023-01-12T16:31:52.656Z,4.03
2023-01-12T16:34:23.617Z,3.92
2023-01-12T16:36:51.984Z,3.89
2023-01-12T16:39:20.180Z,3.78
2023-01-12T16:41:49.838Z,3.73
2023-01-12T16:44:17.951Z,3.66
2023-01-12T16:46:48.706Z,3.60
2023-01-12T16:49:16.892Z,3.61
2023-01-12T16:51:45.024Z,3.52
2023-01-12T16:54:13.167Z,3.48
2023-01-12T16:56:42.142Z,3.50
2023-01-12T16:59:11.687Z,3.43
2023-01-12T17:01:39.967Z,3.43
2023-01-12T17:04:08.328Z,3.42
2023-01-12T17:06:38.679Z,3.37
2023-01-12T17:09:08.184Z,3.28
2023-01-12T17:11:36.398Z,3.24
2023-01-12T17:14:23.075Z,3.26
2023-01-12T17:16:54.446Z,3.26
2023-01-12T17:19:24.069Z,3.25
2023-01-12T17:21:54.674Z,3.24
2023-01-12T17:24:23.356Z,3.26
2023-01-12T17:26:53.702Z,3.26
2023-01-12T17:29:22.458Z,3.24
2023-01-12T17:31:52.358Z,3.24
2023-01-12T17:34:21.579Z,3.22
2023-01-12T17:36:50.016Z,3.25
2023-01-12T17:39:18.213Z,3.16
2023-01-12T17:42:03.597Z,3.12
2023-01-12T17:44:31.889Z,3.11
2023-01-12T17:47:01.381Z,3.04
2023-01-12T17:49:29.655Z,2.99
2023-01-12T17:51:57.771Z,2.99
2023-01-12T17:54:26.088Z,2.98
2023-01-12T17:56:54.703Z,2.93
2023-01-12T17:59:24.534Z,2.91
2023-01-12T18:01:53.754Z,2.83
2023-01-12T18:04:23.407Z,2.78
2023-01-12T18:06:51.621Z,2.79
2023-01-12T18:09:19.896Z,2.73
2023-01-12T18:11:48.012Z,2.69
2023-01-12T18:14:16.636Z,2.61
2023-01-12T18:16:44.851Z,2.54
2023-01-12T18:19:15.011Z,2.50
2023-01-12T18:21:44.576Z,2.44
2023-01-12T18:24:13.151Z,2.45
2023-01-12T18:26:41.287Z,2.30
2023-01-12T18:29:09.717Z,2.29
2023-01-12T18:31:38.945Z,2.29
2023-01-12T18:34:09.077Z,2.27
2023-01-12T18:36:38.970Z,2.28
2023-01-12T18:39:12.234Z,2.28
2023-01-12T18:41:58.282Z,2.28
2023-01-12T18:44:26.846Z,2.34
2023-01-12T18:47:12.753Z,2.37
2023-01-12T18:49:41.540Z,2.35
2023-01-12T18:52:29.921Z,2.43
2023-01-12T18:54:59.791Z,2.43
2023-01-12T18:57:30.412Z,2.43
2023-01-12T19:00:13.493Z,2.51
2023-01-12T19:02:42.680Z,2.51
2023-01-12T19:05:25.712Z,2.54
2023-01-12T19:08:26.600Z,2.54
2023-01-12T19:10:56.980Z,2.60
2023-01-12T19:13:42.349Z,2.58
2023-01-12T19:16:32.670Z,2.51
2023-01-12T19:19:01.186Z,2.51
2023-01-12T19:21:47.188Z,2.52
2023-01-12T19:24:33.421Z,2.59
2023-01-12T19:27:20.756Z,2.59
2023-01-12T19:29:49.220Z,2.60
2023-01-12T19:32:18.535Z,2.69
2023-01-12T19:34:48.332Z,2.67
2023-01-12T19:37:17.510Z,2.67
2023-01-12T19:40:01.167Z,2.70
2023-01-12T19:42:51.747Z,2.76
2023-01-12T19:45:20.986Z,2.80
2023-01-12T19:47:50.674Z,2.82
2023-01-12T19:50:19.778Z,2.80
2023-01-12T19:52:48.498Z,2.79
2023-01-12T19:55:17.625Z,2.87
2023-01-12T19:57:48.241Z,2.84
2023-01-12T20:00:17.828Z,2.91
2023-01-12T20:02:49.391Z,2.89
2023-01-12T20:05:24.148Z,2.89
2023-01-12T20:07:54.212Z,2.85
2023-01-12T20:10:24.229Z,2.76
2023-01-12T20:12:57.160Z,2.78
2023-01-12T20:15:26.172Z,2.76
2023-01-12T20:17:57.196Z,2.74
2023-01-12T20:20:26.258Z,2.74
2023-01-12T20:22:54.623Z,2.78
2023-01-12T20:25:25.751Z,2.76
2023-01-12T20:27:58.092Z,2.76
2023-01-12T20:30:42.986Z,2.73
2023-01-12T20:33:13.567Z,2.63
2023-01-12T20:35:47.815Z,2.60
2023-01-12T20:38:17.118Z,2.44
2023-01-12T20:40:47.350Z,2.39
2023-01-12T20:43:17.596Z,2.38
2023-01-12T20:45:46.167Z,2.40
2023-01-12T20:48:15.643Z,2.28
2023-01-12T20:50:45.726Z,2.19
2023-01-12T20:53:16.368Z,2.12
2023-01-12T20:55:46.352Z,2.07
2023-01-12T20:58:17.560Z,2.01
2023-01-12T21:00:46.920Z,2.02
2023-01-12T21:03:16.770Z,1.97
2023-01-12T21:05:46.384Z,1.92
2023-01-12T21:08:15.334Z,1.92
2023-01-12T21:10:50.228Z,1.87
2023-01-12T21:13:20.415Z,1.84
2023-01-12T21:15:48.599Z,1.88
2023-01-12T21:18:16.772Z,1.79
2023-01-12T21:20:45.316Z,1.73
2023-01-12T21:23:13.660Z,1.69
2023-01-12T21:25:43.220Z,1.55
2023-01-12T21:28:11.682Z,1.51
2023-01-12T21:30:41.784Z,1.45
2023-01-12T21:33:10.552Z,1.39
2023-01-12T21:35:39.094Z,1.36
2023-01-12T21:38:07.583Z,1.44
2023-01-12T21:40:35.838Z,1.37
2023-01-12T21:43:10.201Z,1.37
2023-01-12T21:45:41.561Z,1.42
2023-01-12T21:48:11.170Z,1.35
2023-01-12T21:50:39.993Z,1.32
2023-01-12T21:53:09.001Z,1.28
2023-01-12T21:55:38.875Z,1.27
2023-01-12T21:58:06.965Z,1.25
2023-01-12T22:00:35.201Z,1.33
2023-01-12T22:03:05.253Z,1.36
2023-01-12T22:05:34.591Z,1.43
2023-01-12T22:08:03.723Z,1.46
2023-01-12T22:10:31.921Z,1.56
2023-01-12T22:13:03.004Z,1.67
2023-01-12T22:15:31.522Z,1.67
2023-01-12T22:18:00.295Z,1.70
2023-01-12T22:20:29.913Z,1.73
2023-01-12T22:22:58.322Z,1.67
2023-01-12T22:25:27.493Z,1.66
2023-01-12T22:27:57.386Z,1.58
2023-01-12T22:30:26.213Z,1.58
2023-01-12T22:32:55.694Z,1.63
2023-01-12T22:35:26.170Z,1.61
2023-01-12T22:37:55.920Z,1.59
2023-01-12T22:40:24.197Z,1.61
2023-01-12T22:43:10.094Z,1.61
2023-01-12T22:45:38.385Z,1.63
2023-01-12T22:48:07.341Z,1.72
2023-01-12T22:50:35.435Z,1.68
2023-01-12T22:53:04.938Z,1.79
2023-01-12T22:55:33.077Z,1.75
2023-01-12T22:58:01.290Z,1.81
2023-01-12T23:00:29.508Z,1.75
2023-01-12T23:03:03.678Z,1.76
2023-01-12T23:05:35.918Z,1.75
2023-01-12T23:08:07.208Z,1.74
2023-01-12T23:10:36.161Z,1.77
2023-01-12T23:13:15.849Z,1.82
2023-01-12T23:15:47.135Z,1.71
2023-01-12T23:18:16.691Z,1.71
2023-01-12T23:20:45.194Z,1.72
2023-01-12T23:23:17.786Z,1.73
2023-01-12T23:25:47.014Z,1.86
2023-01-12T23:28:16.402Z,1.81
2023-01-12T23:30:45.082Z,1.81
2023-01-12T23:33:13.274Z,1.84
2023-01-12T23:35:43.080Z,1.86
2023-01-12T23:38:17.189Z,1.84
2023-01-12T23:40:45.607Z,1.84
2023-01-12T23:43:13.782Z,1.85
2023-01-12T23:45:42.734Z,1.84
2023-01-12T23:48:11.222Z,1.87
2023-01-12T23:50:39.518Z,1.90
2023-01-12T23:53:07.726Z,1.88
2023-01-12T23:55:39.394Z,1.66
2023-01-12T23:58:08.296Z,1.74
